createdAt,value
2018-07-19T00:01:01.807Z,62.20
2018-07-19T00:03:06.590Z,62.00
2018-07-19T00:05:11.245Z,61.80
2018-07-19T00:07:15.876Z,61.90
2018-07-19T00:09:20.572Z,62.00
2018-07-19T00:11:25.266Z,61.80
2018-07-19T00:13:29.972Z,62.20
2018-07-19T00:15:34.622Z,62.50
2018-07-19T00:17:39.384Z,62.90
2018-07-19T00:21:48.380Z,63.50
2018-07-19T00:23:53.167Z,63.40
2018-07-19T00:25:58.329Z,63.70
2018-07-19T00:28:03.107Z,63.20
2018-07-19T00:30:07.966Z,63.40
2018-07-19T00:32:12.595Z,63.40
2018-07-19T00:34:17.283Z,63.20
2018-07-19T00:36:22.286Z,63.40
2018-07-19T00:38:27.140Z,63.70
2018-07-19T00:40:31.910Z,64.00
2018-07-19T00:42:36.609Z,64.50
2018-07-19T00:44:41.390Z,65.20
2018-07-19T00:46:46.911Z,65.50
2018-07-19T00:48:51.578Z,66.10
2018-07-19T00:50:56.249Z,65.70
2018-07-19T00:53:00.902Z,65.20
2018-07-19T00:55:05.680Z,65.90
2018-07-19T00:57:10.370Z,65.90
2018-07-19T00:59:15.050Z,65.90
2018-07-19T01:01:19.743Z,65.90
2018-07-19T01:03:24.412Z,66.30
2018-07-19T01:05:29.098Z,66.50
2018-07-19T01:07:33.817Z,66.90
2018-07-19T01:09:38.477Z,67.00
2018-07-19T01:11:43.121Z,67.30
2018-07-19T01:13:47.813Z,67.70
2018-07-19T01:15:52.586Z,68.20
2018-07-19T01:17:57.344Z,69.10
2018-07-19T01:20:02.076Z,69.80
2018-07-19T01:22:06.828Z,69.70
2018-07-19T01:24:11.494Z,70.80
2018-07-19T01:26:16.174Z,71.20
2018-07-19T01:28:20.819Z,71.20
2018-07-19T01:30:25.564Z,71.70
2018-07-19T01:32:30.278Z,72.10
2018-07-19T01:34:34.969Z,73.00
2018-07-19T01:36:39.603Z,73.10
2018-07-19T01:38:44.317Z,73.90
2018-07-19T01:40:48.974Z,74.30
2018-07-19T01:42:53.761Z,74.30
2018-07-19T01:44:58.595Z,74.00
2018-07-19T01:47:03.369Z,74.30
2018-07-19T01:49:08.014Z,74.30
2018-07-19T01:51:12.716Z,74.80
2018-07-19T01:53:17.359Z,74.10
2018-07-19T01:55:22.023Z,73.30
2018-07-19T01:57:26.747Z,73.30
2018-07-19T01:59:31.380Z,73.90
2018-07-19T02:01:35.985Z,74.70
2018-07-19T02:03:40.709Z,74.40
2018-07-19T02:05:45.503Z,74.50
2018-07-19T02:07:50.197Z,75.20
2018-07-19T02:09:54.885Z,75.80
2018-07-19T02:11:59.688Z,76.10
2018-07-19T02:14:04.425Z,76.10
2018-07-19T02:16:09.066Z,76.40
2018-07-19T02:18:13.759Z,76.20
2018-07-19T02:20:18.411Z,76.20
2018-07-19T02:22:23.114Z,76.50
2018-07-19T02:24:27.803Z,76.40
2018-07-19T02:26:32.492Z,76.30
2018-07-19T02:28:37.321Z,76.40
2018-07-19T02:30:42.029Z,77.10
2018-07-19T02:32:46.703Z,77.60
2018-07-19T02:34:51.412Z,77.80
2018-07-19T02:36:56.073Z,78.30
2018-07-19T02:39:00.979Z,78.30
2018-07-19T02:41:05.689Z,78.30
2018-07-19T02:43:10.328Z,78.90
2018-07-19T02:45:15.056Z,79.30
2018-07-19T02:47:19.762Z,78.90
2018-07-19T02:49:24.442Z,79.00
2018-07-19T02:51:29.062Z,78.90
2018-07-19T02:53:33.690Z,78.90
2018-07-19T02:55:38.357Z,78.90
2018-07-19T02:57:43.025Z,79.30
2018-07-19T02:59:47.726Z,79.50
2018-07-19T03:01:52.365Z,79.90
2018-07-19T03:03:57.006Z,80.00
2018-07-19T03:06:01.679Z,80.50
2018-07-19T03:08:06.361Z,80.60
2018-07-19T03:10:11.154Z,80.50
2018-07-19T03:12:15.803Z,80.90
2018-07-19T03:14:20.529Z,80.60
2018-07-19T03:16:25.171Z,80.90
2018-07-19T03:18:29.821Z,81.50
2018-07-19T03:20:34.541Z,81.40
2018-07-19T03:22:39.378Z,82.00
2018-07-19T03:24:44.164Z,82.20
2018-07-19T03:26:48.871Z,82.10
2018-07-19T03:28:53.554Z,82.30
2018-07-19T03:30:58.287Z,82.90
2018-07-19T03:33:02.906Z,83.00
2018-07-19T03:35:07.540Z,83.10
2018-07-19T03:37:12.190Z,83.20
2018-07-19T03:39:16.852Z,83.30
2018-07-19T03:41:21.521Z,83.40
2018-07-19T03:43:26.182Z,84.10
2018-07-19T03:45:30.845Z,84.00
2018-07-19T03:47:35.496Z,84.20
2018-07-19T03:49:40.162Z,84.20
2018-07-19T03:51:44.854Z,84.50
2018-07-19T03:53:49.506Z,84.20
2018-07-19T03:57:58.492Z,84.40
2018-07-19T04:00:03.171Z,84.50
2018-07-19T04:02:07.856Z,84.60
2018-07-19T04:04:12.502Z,85.00
2018-07-19T04:06:17.140Z,84.80
2018-07-19T04:08:21.771Z,85.70
2018-07-19T04:10:26.425Z,85.10
2018-07-19T04:12:31.073Z,84.90
2018-07-19T04:14:35.843Z,85.20
2018-07-19T04:16:40.560Z,85.40
2018-07-19T04:18:45.266Z,85.10
2018-07-19T04:20:50.029Z,85.30
2018-07-19T04:22:55.470Z,85.00
2018-07-19T04:25:00.200Z,85.10
2018-07-19T04:27:04.933Z,85.50
2018-07-19T04:29:09.823Z,85.50
2018-07-19T04:31:14.581Z,85.60
2018-07-19T04:33:19.312Z,85.70
2018-07-19T04:35:24.012Z,86.00
2018-07-19T04:37:30.478Z,85.50
2018-07-19T04:39:35.197Z,85.30
2018-07-19T04:41:39.885Z,85.10
2018-07-19T04:43:44.672Z,85.00
2018-07-19T04:45:49.311Z,84.90
2018-07-19T04:47:54.062Z,84.80
2018-07-19T04:49:59.865Z,84.30
2018-07-19T04:52:04.709Z,84.20
2018-07-19T04:54:09.383Z,84.70
2018-07-19T04:58:18.705Z,83.10
2018-07-19T05:00:23.447Z,82.80
2018-07-19T05:02:28.116Z,84.20
2018-07-19T05:04:32.854Z,83.10
2018-07-19T05:06:37.830Z,82.90
2018-07-19T05:08:42.692Z,82.30
2018-07-19T05:10:47.774Z,82.10
2018-07-19T05:12:52.455Z,82.00
2018-07-19T05:14:57.373Z,82.50
2018-07-19T05:17:02.177Z,81.00
2018-07-19T05:19:07.033Z,80.30
2018-07-19T05:21:12.324Z,80.20
2018-07-19T05:23:17.124Z,80.00
2018-07-19T05:25:21.987Z,80.00
2018-07-19T05:27:26.657Z,80.20
2018-07-19T05:29:31.351Z,79.40
2018-07-19T05:31:37.123Z,79.70
2018-07-19T05:33:41.856Z,79.30
2018-07-19T05:35:47.093Z,79.40
2018-07-19T05:37:51.791Z,78.70
2018-07-19T05:39:57.034Z,78.30
2018-07-19T05:42:01.909Z,78.20
2018-07-19T05:44:07.088Z,78.10
2018-07-19T05:46:11.882Z,78.20
2018-07-19T05:48:16.828Z,78.20
2018-07-19T05:50:21.693Z,77.80
2018-07-19T05:52:26.569Z,77.70
2018-07-19T05:54:31.580Z,77.70
2018-07-19T05:56:36.880Z,77.00
2018-07-19T05:58:41.655Z,76.80
2018-07-19T06:00:46.430Z,76.10
2018-07-19T06:02:51.248Z,75.70
2018-07-19T06:04:56.100Z,75.10
2018-07-19T06:07:00.826Z,74.10
2018-07-19T06:09:09.159Z,73.50
2018-07-19T06:11:13.981Z,73.40
2018-07-19T06:13:19.296Z,73.30
2018-07-19T06:15:24.061Z,72.50
2018-07-19T06:17:28.928Z,72.10
2018-07-19T06:19:33.751Z,71.20
2018-07-19T06:21:38.501Z,71.00
2018-07-19T06:23:43.271Z,71.00
2018-07-19T06:25:48.100Z,71.60
2018-07-19T06:27:53.148Z,71.10
2018-07-19T06:29:58.350Z,71.20
2018-07-19T06:32:03.133Z,70.90
2018-07-19T06:34:07.913Z,71.20
2018-07-19T06:36:12.869Z,71.70
2018-07-19T06:38:17.846Z,70.50
2018-07-19T06:40:22.534Z,70.60
2018-07-19T06:42:27.300Z,70.30
2018-07-19T06:44:32.121Z,70.60
2018-07-19T06:46:36.976Z,70.10
2018-07-19T06:48:41.902Z,69.60
2018-07-19T06:50:46.758Z,70.00
2018-07-19T06:52:51.542Z,70.10
2018-07-19T06:54:56.310Z,69.90
2018-07-19T06:57:01.079Z,70.00
2018-07-19T06:59:05.837Z,70.70
2018-07-19T07:01:10.628Z,70.70
2018-07-19T07:03:15.478Z,70.50
2018-07-19T07:05:20.209Z,69.80
2018-07-19T07:07:25.003Z,69.30
2018-07-19T07:09:29.855Z,69.60
2018-07-19T07:11:34.792Z,69.70
2018-07-19T07:13:39.674Z,69.20
2018-07-19T07:15:44.508Z,69.30
2018-07-19T07:17:49.441Z,68.70
2018-07-19T07:19:54.284Z,68.50
2018-07-19T07:21:59.173Z,68.30
2018-07-19T07:24:04.027Z,67.60
2018-07-19T07:26:08.951Z,66.80
2018-07-19T07:28:13.877Z,67.40
2018-07-19T07:30:18.679Z,67.90
2018-07-19T07:32:23.516Z,67.70
2018-07-19T07:34:28.450Z,67.70
2018-07-19T07:36:33.330Z,66.50
2018-07-19T07:40:42.695Z,66.20
2018-07-19T07:42:47.591Z,66.10
2018-07-19T07:44:52.439Z,64.50
2018-07-19T07:46:57.768Z,64.50
2018-07-19T07:49:02.573Z,64.20
2018-07-19T07:51:07.296Z,64.00
2018-07-19T07:53:12.052Z,63.90
2018-07-19T07:55:17.180Z,63.70
2018-07-19T07:57:21.957Z,63.70
2018-07-19T07:59:27.055Z,63.00
2018-07-19T08:01:31.876Z,62.70
2018-07-19T08:03:36.639Z,62.50
2018-07-19T08:05:41.408Z,62.40
2018-07-19T08:07:46.273Z,61.80
2018-07-19T08:09:51.234Z,60.70
2018-07-19T08:11:56.172Z,61.20
2018-07-19T08:14:01.006Z,62.30
2018-07-19T08:16:05.709Z,61.50
2018-07-19T08:18:10.510Z,63.00
2018-07-19T08:20:15.295Z,62.70
2018-07-19T08:22:20.032Z,61.90
2018-07-19T08:24:24.815Z,61.40
2018-07-19T08:26:29.623Z,61.60
2018-07-19T08:28:34.338Z,61.90
2018-07-19T08:30:39.223Z,62.00
2018-07-19T08:32:43.968Z,61.60
2018-07-19T08:34:48.819Z,61.10
2018-07-19T08:36:53.576Z,61.80
2018-07-19T08:38:58.388Z,62.30
2018-07-19T08:41:03.286Z,62.20
2018-07-19T08:45:12.522Z,61.30
2018-07-19T08:47:17.250Z,60.60
2018-07-19T08:49:22.046Z,62.00
2018-07-19T08:51:26.928Z,60.80
2018-07-19T08:53:31.659Z,61.00
2018-07-19T08:55:36.468Z,61.60
2018-07-19T08:57:41.208Z,61.20
2018-07-19T08:59:45.913Z,61.00
2018-07-19T09:01:50.940Z,61.50
2018-07-19T09:08:04.584Z,60.10
2018-07-19T09:10:09.408Z,60.80
2018-07-19T09:12:14.468Z,60.60
2018-07-19T09:14:19.207Z,60.30
2018-07-19T09:18:37.694Z,59.60
2018-07-19T09:20:42.546Z,60.80
2018-07-19T09:22:47.302Z,59.20
2018-07-19T09:24:51.976Z,59.40
2018-07-19T09:26:56.736Z,58.20
2018-07-19T09:29:01.425Z,58.70
2018-07-19T09:31:06.228Z,58.40
2018-07-19T09:33:11.042Z,58.50
2018-07-19T09:35:15.817Z,56.80
2018-07-19T09:37:20.773Z,56.20
2018-07-19T09:39:25.709Z,55.00
2018-07-19T09:41:30.456Z,55.00
2018-07-19T09:43:35.302Z,54.30
2018-07-19T09:45:40.076Z,53.60
2018-07-19T09:47:44.776Z,55.30
2018-07-19T09:49:49.483Z,55.30
2018-07-19T09:51:54.310Z,54.80
2018-07-19T09:53:59.483Z,54.30
2018-07-19T09:56:04.179Z,54.40
2018-07-19T09:58:09.064Z,55.30
2018-07-19T10:00:18.229Z,53.80
2018-07-19T10:02:23.521Z,53.30
2018-07-19T10:04:29.473Z,51.90
2018-07-19T10:06:36.693Z,52.90
2018-07-19T10:08:41.517Z,52.20
2018-07-19T10:10:46.523Z,51.40
2018-07-19T10:12:51.544Z,51.70
2018-07-19T10:14:56.563Z,50.60
2018-07-19T10:17:01.675Z,50.00
2018-07-19T10:19:06.695Z,50.80
2018-07-19T10:21:11.592Z,51.20
2018-07-19T10:23:16.605Z,49.80
2018-07-19T10:25:21.635Z,50.10
2018-07-19T10:29:32.605Z,48.90
2018-07-19T10:31:37.981Z,47.50
2018-07-19T10:33:43.235Z,46.00
2018-07-19T10:35:48.879Z,46.90
2018-07-19T10:37:54.178Z,46.40
2018-07-19T10:39:59.175Z,46.80
2018-07-19T10:42:04.774Z,45.90
2018-07-19T10:44:10.277Z,44.40
2018-07-19T10:46:15.919Z,43.50
2018-07-19T10:48:20.728Z,43.20
2018-07-19T10:50:26.656Z,44.20
2018-07-19T10:52:31.954Z,45.90
2018-07-19T10:54:36.840Z,46.90
2018-07-19T10:56:41.721Z,47.70
2018-07-19T10:58:46.570Z,47.50
2018-07-19T11:00:51.742Z,47.60
2018-07-19T11:02:56.607Z,47.20
2018-07-19T11:05:01.345Z,46.00
2018-07-19T11:07:06.583Z,45.70
2018-07-19T11:09:11.452Z,45.20
2018-07-19T11:11:16.508Z,44.70
2018-07-19T11:13:21.606Z,43.60
2018-07-19T11:15:26.495Z,44.10
2018-07-19T11:17:31.677Z,43.70
2018-07-19T11:19:36.616Z,43.90
2018-07-19T11:21:41.373Z,44.90
2018-07-19T11:23:46.922Z,45.40
2018-07-19T11:25:52.151Z,45.10
2018-07-19T11:27:56.925Z,43.60
2018-07-19T11:30:01.627Z,43.30
2018-07-19T11:32:06.976Z,44.30
2018-07-19T11:34:11.713Z,44.30
2018-07-19T11:36:16.994Z,42.80
2018-07-19T11:38:22.333Z,42.80
2018-07-19T11:40:28.189Z,43.20
2018-07-19T11:42:33.208Z,42.30
2018-07-19T11:44:38.244Z,41.60
2018-07-19T11:46:43.429Z,42.00
2018-07-19T11:48:48.946Z,43.20
2018-07-19T11:50:54.943Z,42.00
2018-07-19T11:52:59.894Z,41.50
2018-07-19T11:55:04.588Z,41.70
2018-07-19T11:57:09.703Z,41.90
2018-07-19T11:59:14.852Z,43.30
2018-07-19T12:01:20.166Z,43.10
2018-07-19T12:03:25.221Z,42.20
2018-07-19T12:05:30.010Z,42.10
2018-07-19T12:07:34.803Z,42.10
2018-07-19T12:09:39.442Z,41.00
2018-07-19T12:11:44.244Z,41.50
2018-07-19T12:13:49.098Z,41.60
2018-07-19T12:15:53.914Z,42.40
2018-07-19T12:17:58.591Z,42.50
2018-07-19T12:20:03.329Z,42.70
2018-07-19T12:22:08.049Z,42.00
2018-07-19T12:24:12.676Z,40.60
2018-07-19T12:26:17.325Z,41.00
2018-07-19T12:28:22.028Z,40.60
2018-07-19T12:30:26.682Z,41.40
2018-07-19T12:32:31.360Z,41.00
2018-07-19T12:34:36.405Z,41.00
2018-07-19T12:36:41.258Z,40.70
2018-07-19T12:38:46.021Z,40.80
2018-07-19T12:40:51.142Z,40.10
2018-07-19T12:42:55.922Z,40.60
2018-07-19T12:45:00.788Z,40.40
2018-07-19T12:47:06.192Z,40.80
2018-07-19T12:49:11.571Z,41.00
2018-07-19T12:51:16.377Z,41.30
2018-07-19T12:53:21.129Z,41.80
2018-07-19T12:55:26.602Z,41.40
2018-07-19T12:57:31.415Z,42.20
2018-07-19T12:59:36.414Z,43.00
2018-07-19T13:01:41.010Z,41.40
2018-07-19T13:03:45.595Z,40.90
2018-07-19T13:05:50.229Z,40.90
2018-07-19T13:07:54.889Z,40.80
2018-07-19T13:09:59.467Z,40.60
2018-07-19T13:12:04.145Z,40.40
2018-07-19T13:14:10.301Z,39.90
2018-07-19T13:16:15.674Z,38.80
2018-07-19T13:18:20.418Z,38.50
2018-07-19T13:22:29.605Z,38.70
2018-07-19T13:24:34.400Z,38.70
2018-07-19T13:26:39.354Z,38.20
2018-07-19T13:28:44.126Z,38.70
2018-07-19T13:30:48.818Z,38.60
2018-07-19T13:32:53.447Z,38.20
2018-07-19T13:34:58.061Z,37.80
2018-07-19T13:37:03.292Z,38.20
2018-07-19T13:39:09.670Z,37.80
2018-07-19T13:41:15.300Z,38.00
2018-07-19T13:43:20.367Z,37.50
2018-07-19T13:45:25.675Z,38.50
2018-07-19T13:47:30.612Z,38.10
2018-07-19T13:49:35.326Z,36.70
2018-07-19T13:51:40.444Z,36.80
2018-07-19T13:54:19.673Z,36.90
2018-07-19T13:56:27.864Z,37.20
2018-07-19T13:58:33.243Z,36.30
2018-07-19T14:00:38.195Z,35.70
2018-07-19T14:02:43.737Z,37.00
2018-07-19T14:04:48.631Z,35.40
2018-07-19T14:06:53.624Z,35.30
2018-07-19T14:08:58.588Z,36.80
2018-07-19T14:11:03.369Z,36.40
2018-07-19T14:13:08.195Z,37.10
2018-07-19T14:15:13.488Z,36.40
2018-07-19T14:17:18.483Z,33.70
2018-07-19T14:19:23.485Z,34.30
2018-07-19T14:21:28.456Z,34.70
2018-07-19T14:23:33.486Z,34.30
2018-07-19T14:25:38.611Z,35.00
2018-07-19T14:27:43.711Z,34.40
2018-07-19T14:29:48.641Z,33.10
2018-07-19T14:31:53.592Z,34.10
2018-07-19T14:33:58.605Z,35.00
2018-07-19T14:36:03.587Z,35.10
2018-07-19T14:38:08.669Z,34.80
2018-07-19T14:40:13.394Z,35.40
2018-07-19T14:42:18.206Z,36.00
2018-07-19T14:44:23.407Z,36.60
2018-07-19T14:46:28.356Z,35.30
2018-07-19T14:48:33.267Z,36.00
2018-07-19T14:50:37.855Z,35.00
2018-07-19T14:52:43.003Z,34.60
2018-07-19T14:54:47.842Z,34.50
2018-07-19T14:56:52.928Z,35.10
2018-07-19T14:58:57.936Z,35.20
2018-07-19T15:01:02.753Z,35.40
2018-07-19T15:03:07.869Z,34.30
2018-07-19T15:05:12.973Z,34.60
2018-07-19T15:07:17.765Z,35.50
2018-07-19T15:09:22.396Z,35.10
2018-07-19T15:11:27.156Z,35.10
2018-07-19T15:13:31.900Z,34.80
2018-07-19T15:15:36.579Z,34.20
2018-07-19T15:17:41.875Z,34.50
2018-07-19T15:19:47.081Z,33.50
2018-07-19T15:21:51.823Z,33.80
2018-07-19T15:23:57.526Z,33.70
2018-07-19T15:26:02.223Z,34.00
2018-07-19T15:28:06.957Z,34.70
2018-07-19T15:30:11.972Z,35.30
2018-07-19T15:32:17.143Z,36.30
2018-07-19T15:34:23.265Z,36.60
2018-07-19T15:36:27.920Z,36.30
2018-07-19T15:38:32.940Z,37.50
2018-07-19T15:40:38.289Z,35.60
2018-07-19T15:42:44.317Z,36.70
2018-07-19T15:44:49.654Z,36.00
2018-07-19T15:46:55.648Z,34.90
2018-07-19T15:49:00.548Z,34.90
2018-07-19T15:51:08.021Z,34.00
2018-07-19T15:53:13.644Z,33.50
2018-07-19T15:55:19.487Z,34.00
2018-07-19T15:57:24.458Z,35.00
2018-07-19T15:59:29.556Z,34.30
2018-07-19T16:01:34.707Z,34.20
2018-07-19T16:03:39.540Z,33.80
2018-07-19T16:05:44.252Z,34.00
2018-07-19T16:07:48.889Z,34.60
2018-07-19T16:09:53.523Z,34.20
2018-07-19T16:11:58.217Z,35.80
2018-07-19T16:14:02.890Z,35.20
2018-07-19T16:16:07.705Z,34.40
2018-07-19T16:18:12.401Z,39.30
2018-07-19T16:20:17.117Z,42.80
2018-07-19T16:22:21.834Z,45.30
2018-07-19T16:24:26.551Z,43.70
2018-07-19T16:26:31.294Z,42.90
2018-07-19T16:28:36.031Z,40.40
2018-07-19T16:30:40.636Z,40.00
2018-07-19T16:32:45.344Z,40.60
2018-07-19T16:34:50.670Z,38.50
2018-07-19T16:36:55.388Z,38.90
2018-07-19T16:39:00.180Z,39.80
2018-07-19T16:41:04.981Z,41.30
2018-07-19T16:43:09.831Z,39.50
2018-07-19T16:45:14.739Z,38.40
2018-07-19T16:47:19.517Z,37.60
2018-07-19T16:49:24.588Z,38.80
2018-07-19T16:51:29.974Z,42.50
2018-07-19T16:53:34.719Z,41.90
2018-07-19T16:55:39.465Z,41.10
2018-07-19T16:57:44.346Z,37.70
2018-07-19T16:59:49.236Z,37.30
2018-07-19T17:01:54.068Z,40.50
2018-07-19T17:03:58.946Z,37.20
2018-07-19T17:06:03.749Z,37.30
2018-07-19T17:08:08.549Z,37.00
2018-07-19T17:10:13.374Z,40.20
2018-07-19T17:12:18.147Z,39.30
2018-07-19T17:14:23.187Z,39.70
2018-07-19T17:16:27.948Z,39.20
2018-07-19T17:18:32.668Z,37.50
2018-07-19T17:20:37.994Z,39.10
2018-07-19T17:22:42.905Z,40.10
2018-07-19T17:24:47.983Z,38.80
2018-07-19T17:26:53.023Z,39.10
2018-07-19T17:28:58.883Z,38.10
2018-07-19T17:31:03.914Z,36.50
2018-07-19T17:33:09.055Z,35.60
2018-07-19T17:35:13.840Z,34.70
2018-07-19T17:37:18.800Z,34.10
2018-07-19T17:39:23.818Z,33.70
2018-07-19T17:41:28.675Z,33.70
2018-07-19T17:43:33.562Z,33.70
2018-07-19T17:45:38.385Z,34.90
2018-07-19T17:47:43.784Z,36.40
2018-07-19T17:49:48.818Z,33.30
2018-07-19T17:51:54.907Z,33.20
2018-07-19T17:54:00.155Z,32.50
2018-07-19T17:56:05.159Z,33.30
2018-07-19T17:58:09.959Z,33.20
2018-07-19T18:00:14.681Z,34.50
2018-07-19T18:02:19.517Z,33.90
2018-07-19T18:04:25.616Z,34.70
2018-07-19T18:06:33.346Z,34.60
2018-07-19T18:08:40.869Z,33.30
2018-07-19T18:10:46.689Z,33.00
2018-07-19T18:12:52.770Z,33.40
2018-07-19T18:17:21.594Z,33.00
2018-07-19T18:19:26.911Z,32.30
2018-07-19T18:21:31.828Z,32.50
2018-07-19T18:23:36.903Z,32.90
2018-07-19T18:25:41.779Z,33.50
2018-07-19T18:27:46.729Z,34.90
2018-07-19T18:29:52.710Z,34.90
2018-07-19T18:31:57.711Z,35.20
2018-07-19T18:34:02.802Z,35.50
2018-07-19T18:36:07.627Z,35.00
2018-07-19T18:38:12.444Z,36.30
2018-07-19T18:40:17.415Z,35.90
2018-07-19T18:42:22.186Z,36.40
2018-07-19T18:44:26.904Z,36.70
2018-07-19T18:46:32.233Z,37.40
2018-07-19T18:48:37.440Z,37.60
2018-07-19T18:50:42.302Z,38.00
2018-07-19T18:53:03.190Z,38.00
2018-07-19T18:55:14.938Z,38.20
2018-07-19T18:57:20.690Z,38.20
2018-07-19T18:59:25.735Z,38.10
2018-07-19T19:01:30.835Z,38.50
2018-07-19T19:03:35.760Z,39.40
2018-07-19T19:05:41.463Z,39.40
2018-07-19T19:09:50.665Z,39.60
2018-07-19T19:11:55.981Z,40.00
2018-07-19T19:14:00.839Z,40.90
2018-07-19T19:16:05.939Z,40.60
2018-07-19T19:18:10.759Z,40.60
2018-07-19T19:22:20.272Z,40.80
2018-07-19T19:24:25.166Z,41.50
2018-07-19T19:26:30.429Z,41.50
2018-07-19T19:28:36.036Z,42.20
2018-07-19T19:30:41.064Z,41.70
2018-07-19T19:32:45.972Z,41.90
2018-07-19T19:36:55.387Z,43.20
2018-07-19T19:39:00.503Z,44.40
2018-07-19T19:41:06.371Z,43.90
2018-07-19T19:43:11.627Z,44.30
2018-07-19T19:45:16.847Z,45.00
2018-07-19T19:47:22.172Z,45.20
2018-07-19T19:49:27.590Z,46.00
2018-07-19T19:51:32.428Z,46.30
2018-07-19T19:53:37.522Z,46.60
2018-07-19T19:55:43.320Z,46.30
2018-07-19T19:57:48.155Z,47.00
2018-07-19T19:59:53.051Z,47.30
2018-07-19T20:01:58.714Z,47.70
2018-07-19T20:04:04.723Z,47.50
2018-07-19T20:06:10.928Z,47.70
2018-07-19T20:08:15.869Z,48.30
2018-07-19T20:10:20.718Z,48.50
2018-07-19T20:12:25.615Z,49.10
2018-07-19T20:14:30.442Z,48.50
2018-07-19T20:16:35.142Z,49.00
2018-07-19T20:18:39.888Z,49.30
2018-07-19T20:20:44.608Z,49.50
2018-07-19T20:22:49.636Z,49.70
2018-07-19T20:24:54.356Z,50.40
2018-07-19T20:26:59.221Z,50.10
2018-07-19T20:31:09.337Z,49.90
2018-07-19T20:33:14.823Z,49.90
2018-07-19T20:35:19.777Z,50.30
2018-07-19T20:39:29.186Z,50.80
2018-07-19T20:41:33.958Z,51.80
2018-07-19T20:45:43.264Z,51.60
2018-07-19T20:47:48.128Z,52.40
2018-07-19T20:49:53.083Z,51.60
2018-07-19T20:51:57.995Z,51.80
2018-07-19T20:54:02.816Z,52.80
2018-07-19T20:56:07.652Z,52.50
2018-07-19T20:58:12.403Z,52.90
2018-07-19T21:00:17.143Z,53.90
2018-07-19T21:02:21.832Z,53.70
2018-07-19T21:04:26.537Z,53.80
2018-07-19T21:06:31.313Z,54.50
2018-07-19T21:08:36.155Z,54.60
2018-07-19T21:10:40.905Z,54.60
2018-07-19T21:12:45.675Z,54.70
2018-07-19T21:14:50.377Z,55.20
2018-07-19T21:16:55.551Z,55.00
2018-07-19T21:19:00.383Z,55.90
2018-07-19T21:21:05.185Z,55.90
2018-07-19T21:23:09.931Z,56.40
2018-07-19T21:25:14.590Z,56.50
2018-07-19T21:27:19.294Z,56.80
2018-07-19T21:31:39.652Z,57.00
2018-07-19T21:33:44.394Z,56.30
2018-07-19T21:35:49.139Z,56.40
2018-07-19T21:37:53.885Z,56.80
2018-07-19T21:39:58.635Z,56.20
2018-07-19T21:44:08.162Z,56.70
2018-07-19T21:46:13.017Z,56.50
2018-07-19T21:50:22.225Z,57.00
2018-07-19T21:52:26.898Z,56.90
2018-07-19T21:54:31.604Z,57.00
2018-07-19T21:56:36.233Z,56.90
2018-07-19T22:01:21.762Z,57.60
2018-07-19T22:03:26.569Z,57.20
2018-07-19T22:05:31.276Z,57.10
2018-07-19T22:07:35.984Z,57.30
2018-07-19T22:09:40.658Z,57.60
2018-07-19T22:11:45.410Z,57.60
2018-07-19T22:13:50.132Z,57.60
2018-07-19T22:15:54.964Z,57.90
2018-07-19T22:17:59.722Z,58.20
2018-07-19T22:22:08.932Z,58.20
2018-07-19T22:24:13.619Z,58.50
2018-07-19T22:26:18.375Z,58.40
2018-07-19T22:28:23.052Z,58.40
2018-07-19T22:30:27.778Z,58.80
2018-07-19T22:32:32.512Z,59.00
2018-07-19T22:34:37.232Z,59.40
2018-07-19T22:36:41.955Z,59.30
2018-07-19T22:38:46.815Z,59.20
2018-07-19T22:40:51.527Z,59.40
2018-07-19T22:42:56.243Z,59.30
2018-07-19T22:45:00.897Z,59.50
2018-07-19T22:47:05.613Z,58.90
2018-07-19T22:49:10.338Z,59.30
2018-07-19T22:51:15.055Z,58.90
2018-07-19T22:53:19.749Z,58.60
2018-07-19T22:55:24.497Z,58.40
2018-07-19T22:57:29.532Z,58.20
2018-07-19T22:59:34.366Z,58.40
2018-07-19T23:01:39.107Z,58.70
2018-07-19T23:03:43.780Z,58.60
2018-07-19T23:05:48.545Z,58.70
2018-07-19T23:07:53.221Z,58.70
2018-07-19T23:09:57.886Z,59.00
2018-07-19T23:12:02.517Z,58.70
2018-07-19T23:14:07.285Z,58.90
2018-07-19T23:18:16.291Z,59.20
2018-07-19T23:20:20.967Z,59.20
2018-07-19T23:22:25.726Z,59.00
2018-07-19T23:24:30.479Z,58.90
2018-07-19T23:26:35.241Z,59.50
2018-07-19T23:28:40.061Z,59.10
2018-07-19T23:30:44.764Z,59.50
2018-07-19T23:34:54.186Z,60.00
2018-07-19T23:37:03.705Z,59.40
2018-07-19T23:39:12.472Z,59.30
2018-07-19T23:41:21.254Z,59.30
2018-07-19T23:43:30.999Z,59.40
2018-07-19T23:45:40.457Z,59.40
2018-07-19T23:47:45.769Z,59.80
2018-07-19T23:49:50.384Z,59.40
2018-07-19T23:51:55.094Z,59.50
2018-07-19T23:53:59.728Z,60.10
2018-07-19T23:56:04.442Z,59.70
2018-07-19T23:58:09.074Z,59.70
